Terminal Aerodrome Forecast
Issued by NWS Kansas City/Pleasant Hill, MO

Home | Current Version | Previous Version | Text Only | Print | Product List | Glossary On
Versions: 1 2 3 4 5 6 7 8 9 10 11 12 13 14 15 16 17
626
FTUS43 KEAX 180520
TAFMCI
TAF
KMCI 180520Z 1806/1906 10015KT P6SM BKN045 WS020/18035KT
     FM180900 10008KT P6SM BKN035
     FM181200 30017G28KT P6SM BKN025
     FM181700 31020G32KT P6SM BKN035=

USA.gov is the U.S. government's official web portal to all federal, state and local government web resources and services.